sensor_id;sensor_type;location;lat;lon;timestamp;P1;durP1;ratioP1;P2;durP2;ratioP2
16270;SDS011;8243;49.048;8.396;2023-05-10T00:02:10;2.27;;;2.07;;
16270;SDS011;8243;49.048;8.396;2023-05-10T00:04:36;2.30;;;2.10;;
16270;SDS011;8243;49.048;8.396;2023-05-10T00:07:02;2.37;;;2.27;;
16270;SDS011;8243;49.048;8.396;2023-05-10T00:09:28;2.20;;;2.10;;
16270;SDS011;8243;49.048;8.396;2023-05-10T00:11:54;2.00;;;1.90;;
16270;SDS011;8243;49.048;8.396;2023-05-10T00:14:19;2.00;;;1.80;;
16270;SDS011;8243;49.048;8.396;2023-05-10T00:16:45;2.03;;;1.73;;
16270;SDS011;8243;49.048;8.396;2023-05-10T00:19:11;3.60;;;2.07;;
16270;SDS011;8243;49.048;8.396;2023-05-10T00:21:36;2.10;;;1.90;;
16270;SDS011;8243;49.048;8.396;2023-05-10T00:24:02;1.70;;;1.60;;
16270;SDS011;8243;49.048;8.396;2023-05-10T00:26:28;4.13;;;1.90;;
16270;SDS011;8243;49.048;8.396;2023-05-10T00:28:53;1.67;;;1.57;;
16270;SDS011;8243;49.048;8.396;2023-05-10T00:31:19;2.67;;;1.80;;
16270;SDS011;8243;49.048;8.396;2023-05-10T00:33:45;1.60;;;1.50;;
16270;SDS011;8243;49.048;8.396;2023-05-10T00:36:10;1.80;;;1.70;;
16270;SDS011;8243;49.048;8.396;2023-05-10T00:38:36;1.50;;;1.40;;
16270;SDS011;8243;49.048;8.396;2023-05-10T00:41:02;1.70;;;1.60;;
16270;SDS011;8243;49.048;8.396;2023-05-10T00:43:28;3.43;;;1.40;;
16270;SDS011;8243;49.048;8.396;2023-05-10T00:45:55;2.33;;;1.33;;
16270;SDS011;8243;49.048;8.396;2023-05-10T00:48:21;2.70;;;1.53;;
16270;SDS011;8243;49.048;8.396;2023-05-10T00:50:47;1.97;;;1.40;;
16270;SDS011;8243;49.048;8.396;2023-05-10T00:53:13;1.40;;;1.30;;
16270;SDS011;8243;49.048;8.396;2023-05-10T00:55:39;1.93;;;1.60;;
16270;SDS011;8243;49.048;8.396;2023-05-10T00:58:06;1.70;;;1.60;;
16270;SDS011;8243;49.048;8.396;2023-05-10T01:00:32;2.93;;;1.50;;
16270;SDS011;8243;49.048;8.396;2023-05-10T01:02:58;4.03;;;1.80;;
16270;SDS011;8243;49.048;8.396;2023-05-10T01:05:25;1.77;;;1.67;;
16270;SDS011;8243;49.048;8.396;2023-05-10T01:07:52;2.00;;;1.80;;
16270;SDS011;8243;49.048;8.396;2023-05-10T01:10:18;2.13;;;1.90;;
16270;SDS011;8243;49.048;8.396;2023-05-10T01:12:45;1.50;;;1.40;;
16270;SDS011;8243;49.048;8.396;2023-05-10T01:15:12;2.80;;;1.73;;
16270;SDS011;8243;49.048;8.396;2023-05-10T01:17:40;4.67;;;1.87;;
16270;SDS011;8243;49.048;8.396;2023-05-10T01:20:08;1.87;;;1.77;;
16270;SDS011;8243;49.048;8.396;2023-05-10T01:36:28;2.90;;;2.17;;
16270;SDS011;8243;49.048;8.396;2023-05-10T01:39:05;2.50;;;2.27;;
16270;SDS011;8243;49.048;8.396;2023-05-10T01:44:34;3.13;;;2.23;;
16270;SDS011;8243;49.048;8.396;2023-05-10T01:47:05;2.80;;;2.60;;
16270;SDS011;8243;49.048;8.396;2023-05-10T01:49:37;2.40;;;2.20;;
16270;SDS011;8243;49.048;8.396;2023-05-10T01:52:26;2.20;;;2.10;;
16270;SDS011;8243;49.048;8.396;2023-05-10T01:54:58;2.63;;;2.43;;
16270;SDS011;8243;49.048;8.396;2023-05-10T01:57:30;3.30;;;2.50;;
16270;SDS011;8243;49.048;8.396;2023-05-10T01:59:59;2.80;;;2.60;;
16270;SDS011;8243;49.048;8.396;2023-05-10T02:02:26;3.23;;;2.93;;
16270;SDS011;8243;49.048;8.396;2023-05-10T02:04:53;3.73;;;2.90;;
16270;SDS011;8243;49.048;8.396;2023-05-10T02:07:22;3.93;;;3.00;;
16270;SDS011;8243;49.048;8.396;2023-05-10T02:09:49;3.20;;;3.00;;
16270;SDS011;8243;49.048;8.396;2023-05-10T02:12:17;4.20;;;3.10;;
16270;SDS011;8243;49.048;8.396;2023-05-10T02:14:43;3.50;;;3.20;;
16270;SDS011;8243;49.048;8.396;2023-05-10T02:17:11;4.00;;;3.23;;
16270;SDS011;8243;49.048;8.396;2023-05-10T02:19:40;3.80;;;3.50;;
16270;SDS011;8243;49.048;8.396;2023-05-10T02:22:08;3.83;;;3.53;;
16270;SDS011;8243;49.048;8.396;2023-05-10T02:24:34;4.10;;;3.80;;
16270;SDS011;8243;49.048;8.396;2023-05-10T02:27:02;4.90;;;3.73;;
16270;SDS011;8243;49.048;8.396;2023-05-10T02:29:29;4.40;;;4.00;;
16270;SDS011;8243;49.048;8.396;2023-05-10T02:31:57;4.73;;;4.27;;
16270;SDS011;8243;49.048;8.396;2023-05-10T02:34:27;5.30;;;4.80;;
16270;SDS011;8243;49.048;8.396;2023-05-10T02:36:55;6.43;;;4.77;;
16270;SDS011;8243;49.048;8.396;2023-05-10T02:39:21;5.27;;;4.77;;
16270;SDS011;8243;49.048;8.396;2023-05-10T02:41:49;5.37;;;4.87;;
16270;SDS011;8243;49.048;8.396;2023-05-10T02:44:20;5.80;;;5.20;;
16270;SDS011;8243;49.048;8.396;2023-05-10T02:46:46;5.90;;;5.40;;
16270;SDS011;8243;49.048;8.396;2023-05-10T02:49:13;6.63;;;5.43;;
16270;SDS011;8243;49.048;8.396;2023-05-10T02:51:44;5.97;;;5.47;;
16270;SDS011;8243;49.048;8.396;2023-05-10T02:54:18;6.13;;;5.53;;
16270;SDS011;8243;49.048;8.396;2023-05-10T02:56:51;6.77;;;6.07;;
16270;SDS011;8243;49.048;8.396;2023-05-10T02:59:22;6.47;;;5.87;;
16270;SDS011;8243;49.048;8.396;2023-05-10T03:01:47;6.23;;;5.63;;
16270;SDS011;8243;49.048;8.396;2023-05-10T03:04:13;6.50;;;6.00;;
16270;SDS011;8243;49.048;8.396;2023-05-10T03:06:39;6.73;;;6.13;;
16270;SDS011;8243;49.048;8.396;2023-05-10T03:09:05;7.43;;;6.03;;
16270;SDS011;8243;49.048;8.396;2023-05-10T03:11:50;6.40;;;5.90;;
16270;SDS011;8243;49.048;8.396;2023-05-10T03:20:38;6.70;;;6.10;;
16270;SDS011;8243;49.048;8.396;2023-05-10T03:25:43;6.30;;;5.80;;
16270;SDS011;8243;49.048;8.396;2023-05-10T03:28:12;8.27;;;6.80;;
16270;SDS011;8243;49.048;8.396;2023-05-10T03:30:40;6.50;;;5.90;;
16270;SDS011;8243;49.048;8.396;2023-05-10T03:33:08;7.20;;;6.50;;
16270;SDS011;8243;49.048;8.396;2023-05-10T03:35:34;7.47;;;6.63;;
16270;SDS011;8243;49.048;8.396;2023-05-10T03:38:00;7.80;;;6.90;;
16270;SDS011;8243;49.048;8.396;2023-05-10T03:40:26;7.60;;;6.90;;
16270;SDS011;8243;49.048;8.396;2023-05-10T03:42:57;9.70;;;6.80;;
16270;SDS011;8243;49.048;8.396;2023-05-10T03:45:23;8.23;;;6.80;;
16270;SDS011;8243;49.048;8.396;2023-05-10T03:47:50;7.13;;;6.23;;
16270;SDS011;8243;49.048;8.396;2023-05-10T03:50:16;7.17;;;6.47;;
16270;SDS011;8243;49.048;8.396;2023-05-10T03:52:42;7.03;;;6.43;;
16270;SDS011;8243;49.048;8.396;2023-05-10T03:55:08;7.77;;;7.07;;
16270;SDS011;8243;49.048;8.396;2023-05-10T03:57:34;8.50;;;6.47;;
16270;SDS011;8243;49.048;8.396;2023-05-10T04:00:00;7.50;;;6.80;;
16270;SDS011;8243;49.048;8.396;2023-05-10T04:02:26;7.63;;;6.93;;
16270;SDS011;8243;49.048;8.396;2023-05-10T04:04:51;8.37;;;6.83;;
16270;SDS011;8243;49.048;8.396;2023-05-10T04:07:17;7.43;;;6.73;;
16270;SDS011;8243;49.048;8.396;2023-05-10T04:09:43;7.60;;;6.80;;
16270;SDS011;8243;49.048;8.396;2023-05-10T04:12:08;7.37;;;6.53;;
16270;SDS011;8243;49.048;8.396;2023-05-10T04:14:34;7.83;;;6.67;;
16270;SDS011;8243;49.048;8.396;2023-05-10T04:17:00;7.57;;;6.87;;
16270;SDS011;8243;49.048;8.396;2023-05-10T04:19:29;7.53;;;6.83;;
16270;SDS011;8243;49.048;8.396;2023-05-10T04:21:55;7.60;;;6.80;;
16270;SDS011;8243;49.048;8.396;2023-05-10T04:24:20;7.40;;;6.70;;
16270;SDS011;8243;49.048;8.396;2023-05-10T04:26:46;7.30;;;6.60;;
16270;SDS011;8243;49.048;8.396;2023-05-10T04:29:12;7.93;;;7.13;;
16270;SDS011;8243;49.048;8.396;2023-05-10T04:31:37;7.73;;;6.93;;
16270;SDS011;8243;49.048;8.396;2023-05-10T04:34:03;7.77;;;6.70;;
16270;SDS011;8243;49.048;8.396;2023-05-10T04:36:30;7.30;;;6.57;;
16270;SDS011;8243;49.048;8.396;2023-05-10T04:38:57;7.50;;;6.80;;
16270;SDS011;8243;49.048;8.396;2023-05-10T04:41:23;7.10;;;6.50;;
16270;SDS011;8243;49.048;8.396;2023-05-10T04:43:49;7.77;;;7.00;;
16270;SDS011;8243;49.048;8.396;2023-05-10T04:46:15;8.37;;;6.60;;
16270;SDS011;8243;49.048;8.396;2023-05-10T04:48:42;7.00;;;6.40;;
16270;SDS011;8243;49.048;8.396;2023-05-10T04:51:07;6.80;;;6.20;;
16270;SDS011;8243;49.048;8.396;2023-05-10T04:53:33;6.70;;;6.10;;
16270;SDS011;8243;49.048;8.396;2023-05-10T04:55:58;6.60;;;6.00;;
16270;SDS011;8243;49.048;8.396;2023-05-10T04:58:24;6.60;;;6.10;;
16270;SDS011;8243;49.048;8.396;2023-05-10T05:00:50;8.53;;;6.40;;
16270;SDS011;8243;49.048;8.396;2023-05-10T05:03:16;6.93;;;6.33;;
16270;SDS011;8243;49.048;8.396;2023-05-10T05:05:42;7.07;;;6.37;;
16270;SDS011;8243;49.048;8.396;2023-05-10T05:08:08;7.10;;;6.50;;
16270;SDS011;8243;49.048;8.396;2023-05-10T05:10:34;6.80;;;6.20;;
16270;SDS011;8243;49.048;8.396;2023-05-10T05:13:00;6.90;;;6.30;;
16270;SDS011;8243;49.048;8.396;2023-05-10T05:15:26;7.20;;;6.60;;
16270;SDS011;8243;49.048;8.396;2023-05-10T05:17:52;6.80;;;6.13;;
16270;SDS011;8243;49.048;8.396;2023-05-10T05:20:18;7.53;;;6.83;;
16270;SDS011;8243;49.048;8.396;2023-05-10T05:22:44;10.10;;;6.90;;
16270;SDS011;8243;49.048;8.396;2023-05-10T05:25:10;6.50;;;5.90;;
16270;SDS011;8243;49.048;8.396;2023-05-10T05:27:36;5.83;;;5.33;;
16270;SDS011;8243;49.048;8.396;2023-05-10T05:30:02;6.90;;;6.30;;
16270;SDS011;8243;49.048;8.396;2023-05-10T05:32:29;6.37;;;5.77;;
16270;SDS011;8243;49.048;8.396;2023-05-10T05:34:55;6.30;;;5.70;;
16270;SDS011;8243;49.048;8.396;2023-05-10T05:37:21;6.53;;;5.30;;
16270;SDS011;8243;49.048;8.396;2023-05-10T05:39:48;5.87;;;5.27;;
16270;SDS011;8243;49.048;8.396;2023-05-10T05:42:15;6.97;;;4.80;;
16270;SDS011;8243;49.048;8.396;2023-05-10T05:44:42;5.30;;;4.67;;
16270;SDS011;8243;49.048;8.396;2023-05-10T05:47:08;6.50;;;4.23;;
16270;SDS011;8243;49.048;8.396;2023-05-10T05:49:34;5.90;;;4.50;;
16270;SDS011;8243;49.048;8.396;2023-05-10T05:52:00;6.23;;;3.90;;
16270;SDS011;8243;49.048;8.396;2023-05-10T05:54:27;5.50;;;3.97;;
16270;SDS011;8243;49.048;8.396;2023-05-10T05:56:56;3.60;;;3.33;;
16270;SDS011;8243;49.048;8.396;2023-05-10T05:59:29;3.80;;;3.50;;
16270;SDS011;8243;49.048;8.396;2023-05-10T06:01:54;4.10;;;3.77;;
16270;SDS011;8243;49.048;8.396;2023-05-10T06:04:20;6.83;;;3.20;;
16270;SDS011;8243;49.048;8.396;2023-05-10T06:06:45;3.13;;;2.70;;
16270;SDS011;8243;49.048;8.396;2023-05-10T06:09:11;3.40;;;2.97;;
16270;SDS011;8243;49.048;8.396;2023-05-10T06:11:37;2.63;;;2.43;;
16270;SDS011;8243;49.048;8.396;2023-05-10T06:14:05;2.43;;;2.23;;
16270;SDS011;8243;49.048;8.396;2023-05-10T06:16:32;2.50;;;1.90;;
16270;SDS011;8243;49.048;8.396;2023-05-10T06:18:59;2.40;;;2.20;;
16270;SDS011;8243;49.048;8.396;2023-05-10T06:21:24;3.73;;;2.57;;
16270;SDS011;8243;49.048;8.396;2023-05-10T06:23:50;3.37;;;2.10;;
16270;SDS011;8243;49.048;8.396;2023-05-10T06:26:16;2.17;;;2.07;;
16270;SDS011;8243;49.048;8.396;2023-05-10T06:28:41;2.83;;;2.10;;
16270;SDS011;8243;49.048;8.396;2023-05-10T06:31:07;2.13;;;1.90;;
16270;SDS011;8243;49.048;8.396;2023-05-10T06:33:33;2.73;;;1.57;;
16270;SDS011;8243;49.048;8.396;2023-05-10T06:35:59;1.87;;;1.77;;
16270;SDS011;8243;49.048;8.396;2023-05-10T06:38:25;2.67;;;1.67;;
16270;SDS011;8243;49.048;8.396;2023-05-10T06:40:51;2.13;;;1.50;;
16270;SDS011;8243;49.048;8.396;2023-05-10T06:43:16;1.40;;;1.30;;
16270;SDS011;8243;49.048;8.396;2023-05-10T06:45:42;1.50;;;1.40;;
16270;SDS011;8243;49.048;8.396;2023-05-10T06:48:08;1.20;;;1.20;;
16270;SDS011;8243;49.048;8.396;2023-05-10T06:50:33;1.63;;;1.40;;
16270;SDS011;8243;49.048;8.396;2023-05-10T06:52:59;1.90;;;1.57;;
16270;SDS011;8243;49.048;8.396;2023-05-10T06:55:26;1.43;;;1.20;;
16270;SDS011;8243;49.048;8.396;2023-05-10T06:57:52;3.57;;;1.53;;
16270;SDS011;8243;49.048;8.396;2023-05-10T07:00:18;2.80;;;1.63;;
16270;SDS011;8243;49.048;8.396;2023-05-10T07:02:44;1.20;;;1.20;;
16270;SDS011;8243;49.048;8.396;2023-05-10T07:05:10;1.40;;;1.30;;
16270;SDS011;8243;49.048;8.396;2023-05-10T07:07:36;1.57;;;1.47;;
16270;SDS011;8243;49.048;8.396;2023-05-10T07:10:03;1.50;;;1.40;;
16270;SDS011;8243;49.048;8.396;2023-05-10T07:12:28;1.23;;;1.13;;
16270;SDS011;8243;49.048;8.396;2023-05-10T07:14:54;1.73;;;1.33;;
16270;SDS011;8243;49.048;8.396;2023-05-10T07:17:20;1.40;;;1.30;;
16270;SDS011;8243;49.048;8.396;2023-05-10T07:19:46;1.40;;;1.30;;
16270;SDS011;8243;49.048;8.396;2023-05-10T07:22:12;1.87;;;1.40;;
16270;SDS011;8243;49.048;8.396;2023-05-10T07:24:37;2.17;;;1.60;;
16270;SDS011;8243;49.048;8.396;2023-05-10T07:27:03;1.47;;;1.40;;
16270;SDS011;8243;49.048;8.396;2023-05-10T07:29:29;2.13;;;1.67;;
16270;SDS011;8243;49.048;8.396;2023-05-10T07:31:55;2.17;;;1.50;;
16270;SDS011;8243;49.048;8.396;2023-05-10T07:34:20;2.33;;;1.80;;
16270;SDS011;8243;49.048;8.396;2023-05-10T07:36:46;2.27;;;1.67;;
16270;SDS011;8243;49.048;8.396;2023-05-10T07:39:11;2.00;;;1.80;;
16270;SDS011;8243;49.048;8.396;2023-05-10T07:41:37;1.60;;;1.50;;
16270;SDS011;8243;49.048;8.396;2023-05-10T07:44:03;1.60;;;1.50;;
16270;SDS011;8243;49.048;8.396;2023-05-10T07:46:30;3.53;;;1.77;;
16270;SDS011;8243;49.048;8.396;2023-05-10T07:48:56;3.03;;;1.77;;
16270;SDS011;8243;49.048;8.396;2023-05-10T07:51:21;2.30;;;1.30;;
16270;SDS011;8243;49.048;8.396;2023-05-10T07:53:47;1.50;;;1.40;;
16270;SDS011;8243;49.048;8.396;2023-05-10T07:56:23;1.33;;;1.33;;
16270;SDS011;8243;49.048;8.396;2023-05-10T07:58:52;2.73;;;1.50;;
16270;SDS011;8243;49.048;8.396;2023-05-10T08:01:18;1.63;;;1.30;;
16270;SDS011;8243;49.048;8.396;2023-05-10T08:03:44;1.53;;;1.43;;
16270;SDS011;8243;49.048;8.396;2023-05-10T08:06:10;2.33;;;1.30;;
16270;SDS011;8243;49.048;8.396;2023-05-10T08:08:36;1.83;;;1.30;;
16270;SDS011;8243;49.048;8.396;2023-05-10T08:11:01;1.33;;;1.23;;
16270;SDS011;8243;49.048;8.396;2023-05-10T08:13:28;2.13;;;1.93;;
16270;SDS011;8243;49.048;8.396;2023-05-10T08:15:54;1.97;;;1.70;;
16270;SDS011;8243;49.048;8.396;2023-05-10T08:18:20;1.47;;;1.30;;
16270;SDS011;8243;49.048;8.396;2023-05-10T08:20:45;2.23;;;1.50;;
16270;SDS011;8243;49.048;8.396;2023-05-10T08:23:14;1.60;;;1.50;;
16270;SDS011;8243;49.048;8.396;2023-05-10T08:25:40;1.30;;;1.20;;
16270;SDS011;8243;49.048;8.396;2023-05-10T08:28:06;2.77;;;1.27;;
16270;SDS011;8243;49.048;8.396;2023-05-10T08:30:32;0.97;;;0.97;;
16270;SDS011;8243;49.048;8.396;2023-05-10T08:32:57;1.37;;;1.10;;
16270;SDS011;8243;49.048;8.396;2023-05-10T08:35:23;1.40;;;1.17;;
16270;SDS011;8243;49.048;8.396;2023-05-10T08:37:49;1.30;;;1.20;;
16270;SDS011;8243;49.048;8.396;2023-05-10T08:40:15;2.47;;;1.40;;
16270;SDS011;8243;49.048;8.396;2023-05-10T08:42:45;1.90;;;1.30;;
16270;SDS011;8243;49.048;8.396;2023-05-10T08:45:19;1.03;;;1.03;;
16270;SDS011;8243;49.048;8.396;2023-05-10T08:47:46;1.83;;;1.40;;
16270;SDS011;8243;49.048;8.396;2023-05-10T08:50:12;1.20;;;1.10;;
16270;SDS011;8243;49.048;8.396;2023-05-10T08:52:39;1.30;;;1.10;;
16270;SDS011;8243;49.048;8.396;2023-05-10T08:55:06;1.10;;;1.10;;
16270;SDS011;8243;49.048;8.396;2023-05-10T08:57:32;2.87;;;1.10;;
16270;SDS011;8243;49.048;8.396;2023-05-10T08:59:59;1.13;;;1.00;;
16270;SDS011;8243;49.048;8.396;2023-05-10T09:02:26;1.13;;;1.03;;
16270;SDS011;8243;49.048;8.396;2023-05-10T09:04:51;1.20;;;1.10;;
16270;SDS011;8243;49.048;8.396;2023-05-10T09:07:18;1.47;;;1.37;;
16270;SDS011;8243;49.048;8.396;2023-05-10T09:09:45;1.30;;;1.13;;
16270;SDS011;8243;49.048;8.396;2023-05-10T09:12:11;1.10;;;1.10;;
16270;SDS011;8243;49.048;8.396;2023-05-10T09:14:38;2.60;;;1.17;;
16270;SDS011;8243;49.048;8.396;2023-05-10T09:17:04;0.83;;;0.83;;
16270;SDS011;8243;49.048;8.396;2023-05-10T09:19:30;1.53;;;0.90;;
16270;SDS011;8243;49.048;8.396;2023-05-10T09:21:56;1.87;;;0.90;;
16270;SDS011;8243;49.048;8.396;2023-05-10T09:24:24;0.80;;;0.80;;
16270;SDS011;8243;49.048;8.396;2023-05-10T09:26:51;1.03;;;1.03;;
16270;SDS011;8243;49.048;8.396;2023-05-10T09:29:17;1.80;;;1.00;;
16270;SDS011;8243;49.048;8.396;2023-05-10T09:31:52;2.30;;;1.00;;
16270;SDS011;8243;49.048;8.396;2023-05-10T09:34:30;0.90;;;0.90;;
16270;SDS011;8243;49.048;8.396;2023-05-10T09:36:57;1.83;;;1.20;;
16270;SDS011;8243;49.048;8.396;2023-05-10T09:39:38;1.60;;;0.90;;
16270;SDS011;8243;49.048;8.396;2023-05-10T09:42:05;1.07;;;0.70;;
16270;SDS011;8243;49.048;8.396;2023-05-10T09:44:32;3.90;;;1.10;;
16270;SDS011;8243;49.048;8.396;2023-05-10T09:46:59;1.63;;;0.90;;
16270;SDS011;8243;49.048;8.396;2023-05-10T09:49:28;3.70;;;1.00;;
16270;SDS011;8243;49.048;8.396;2023-05-10T09:52:03;0.70;;;0.70;;
16270;SDS011;8243;49.048;8.396;2023-05-10T09:54:31;0.80;;;0.80;;
16270;SDS011;8243;49.048;8.396;2023-05-10T09:56:57;2.83;;;1.07;;
16270;SDS011;8243;49.048;8.396;2023-05-10T09:59:24;1.17;;;1.07;;
16270;SDS011;8243;49.048;8.396;2023-05-10T10:01:52;1.00;;;0.90;;
16270;SDS011;8243;49.048;8.396;2023-05-10T10:04:20;1.30;;;0.93;;
16270;SDS011;8243;49.048;8.396;2023-05-10T10:06:46;1.17;;;1.00;;
16270;SDS011;8243;49.048;8.396;2023-05-10T10:09:27;1.87;;;0.93;;
16270;SDS011;8243;49.048;8.396;2023-05-10T10:11:53;0.60;;;0.60;;
16270;SDS011;8243;49.048;8.396;2023-05-10T10:14:19;2.23;;;1.00;;
16270;SDS011;8243;49.048;8.396;2023-05-10T10:16:47;4.60;;;1.07;;
16270;SDS011;8243;49.048;8.396;2023-05-10T10:19:14;1.83;;;1.00;;
16270;SDS011;8243;49.048;8.396;2023-05-10T10:21:40;3.33;;;0.90;;
16270;SDS011;8243;49.048;8.396;2023-05-10T10:24:05;2.17;;;1.00;;
16270;SDS011;8243;49.048;8.396;2023-05-10T10:26:34;2.93;;;1.13;;
16270;SDS011;8243;49.048;8.396;2023-05-10T10:32:30;3.03;;;1.43;;
16270;SDS011;8243;49.048;8.396;2023-05-10T10:34:38;2.20;;;1.20;;
16270;SDS011;8243;49.048;8.396;2023-05-10T10:37:05;2.30;;;1.30;;
16270;SDS011;8243;49.048;8.396;2023-05-10T10:39:31;2.50;;;1.20;;
16270;SDS011;8243;49.048;8.396;2023-05-10T10:41:58;2.73;;;1.30;;
16270;SDS011;8243;49.048;8.396;2023-05-10T10:49:38;2.97;;;1.80;;
16270;SDS011;8243;49.048;8.396;2023-05-10T10:52:25;3.10;;;1.70;;
16270;SDS011;8243;49.048;8.396;2023-05-10T10:57:42;2.23;;;1.70;;
16270;SDS011;8243;49.048;8.396;2023-05-10T11:00:23;1.70;;;1.60;;
16270;SDS011;8243;49.048;8.396;2023-05-10T11:03:10;2.93;;;1.60;;
16270;SDS011;8243;49.048;8.396;2023-05-10T11:05:47;3.37;;;1.60;;
16270;SDS011;8243;49.048;8.396;2023-05-10T11:08:27;4.00;;;1.60;;
16270;SDS011;8243;49.048;8.396;2023-05-10T11:13:31;4.67;;;1.60;;
16270;SDS011;8243;49.048;8.396;2023-05-10T11:16:13;2.87;;;1.53;;
16270;SDS011;8243;49.048;8.396;2023-05-10T11:18:39;2.07;;;1.40;;
16270;SDS011;8243;49.048;8.396;2023-05-10T11:21:08;2.97;;;1.50;;
16270;SDS011;8243;49.048;8.396;2023-05-10T11:26:21;3.83;;;1.23;;
16270;SDS011;8243;49.048;8.396;2023-05-10T11:28:51;4.37;;;1.37;;
16270;SDS011;8243;49.048;8.396;2023-05-10T11:31:20;2.37;;;1.50;;
16270;SDS011;8243;49.048;8.396;2023-05-10T11:33:50;2.33;;;1.13;;
16270;SDS011;8243;49.048;8.396;2023-05-10T11:36:24;1.90;;;1.10;;
16270;SDS011;8243;49.048;8.396;2023-05-10T11:38:51;2.27;;;1.23;;
16270;SDS011;8243;49.048;8.396;2023-05-10T11:41:18;3.33;;;1.10;;
16270;SDS011;8243;49.048;8.396;2023-05-10T11:43:46;2.83;;;1.27;;
16270;SDS011;8243;49.048;8.396;2023-05-10T11:46:14;2.20;;;1.27;;
16270;SDS011;8243;49.048;8.396;2023-05-10T11:48:41;1.83;;;1.10;;
16270;SDS011;8243;49.048;8.396;2023-05-10T11:51:09;3.47;;;1.20;;
16270;SDS011;8243;49.048;8.396;2023-05-10T11:53:35;2.40;;;1.20;;
16270;SDS011;8243;49.048;8.396;2023-05-10T11:56:12;1.73;;;1.00;;
16270;SDS011;8243;49.048;8.396;2023-05-10T11:58:38;0.83;;;0.77;;
16270;SDS011;8243;49.048;8.396;2023-05-10T12:01:05;1.00;;;0.80;;
16270;SDS011;8243;49.048;8.396;2023-05-10T12:03:32;0.70;;;0.70;;
16270;SDS011;8243;49.048;8.396;2023-05-10T12:05:58;1.37;;;1.20;;
16270;SDS011;8243;49.048;8.396;2023-05-10T12:08:26;1.57;;;0.97;;
16270;SDS011;8243;49.048;8.396;2023-05-10T12:11:03;1.13;;;1.03;;
16270;SDS011;8243;49.048;8.396;2023-05-10T12:13:30;2.17;;;0.93;;
16270;SDS011;8243;49.048;8.396;2023-05-10T12:15:58;2.20;;;1.10;;
16270;SDS011;8243;49.048;8.396;2023-05-10T12:18:25;1.30;;;0.90;;
16270;SDS011;8243;49.048;8.396;2023-05-10T12:20:52;1.13;;;1.10;;
16270;SDS011;8243;49.048;8.396;2023-05-10T12:23:18;1.07;;;0.90;;
16270;SDS011;8243;49.048;8.396;2023-05-10T12:25:45;5.07;;;1.20;;
16270;SDS011;8243;49.048;8.396;2023-05-10T12:28:11;1.80;;;1.10;;
16270;SDS011;8243;49.048;8.396;2023-05-10T12:30:37;1.03;;;0.90;;
16270;SDS011;8243;49.048;8.396;2023-05-10T12:33:08;1.10;;;1.00;;
16270;SDS011;8243;49.048;8.396;2023-05-10T12:35:45;1.60;;;0.90;;
16270;SDS011;8243;49.048;8.396;2023-05-10T12:38:25;1.20;;;1.10;;
16270;SDS011;8243;49.048;8.396;2023-05-10T12:40:51;2.30;;;1.20;;
16270;SDS011;8243;49.048;8.396;2023-05-10T12:43:16;3.37;;;1.30;;
16270;SDS011;8243;49.048;8.396;2023-05-10T12:45:42;4.83;;;1.30;;
16270;SDS011;8243;49.048;8.396;2023-05-10T12:48:13;1.40;;;1.30;;
16270;SDS011;8243;49.048;8.396;2023-05-10T12:50:39;1.33;;;1.10;;
16270;SDS011;8243;49.048;8.396;2023-05-10T12:53:05;2.03;;;1.10;;
16270;SDS011;8243;49.048;8.396;2023-05-10T12:55:30;2.00;;;1.30;;
16270;SDS011;8243;49.048;8.396;2023-05-10T12:57:56;2.47;;;1.07;;
16270;SDS011;8243;49.048;8.396;2023-05-10T13:00:22;1.97;;;1.30;;
16270;SDS011;8243;49.048;8.396;2023-05-10T13:02:48;2.93;;;1.40;;
16270;SDS011;8243;49.048;8.396;2023-05-10T13:05:14;1.17;;;1.07;;
16270;SDS011;8243;49.048;8.396;2023-05-10T13:07:39;1.17;;;1.00;;
16270;SDS011;8243;49.048;8.396;2023-05-10T13:10:06;1.47;;;1.10;;
16270;SDS011;8243;49.048;8.396;2023-05-10T13:12:32;1.80;;;1.20;;
16270;SDS011;8243;49.048;8.396;2023-05-10T13:14:58;1.00;;;0.90;;
16270;SDS011;8243;49.048;8.396;2023-05-10T13:17:25;1.13;;;1.03;;
16270;SDS011;8243;49.048;8.396;2023-05-10T13:19:50;2.70;;;0.80;;
16270;SDS011;8243;49.048;8.396;2023-05-10T13:22:16;5.40;;;1.13;;
16270;SDS011;8243;49.048;8.396;2023-05-10T13:24:42;0.63;;;0.50;;
16270;SDS011;8243;49.048;8.396;2023-05-10T13:27:08;3.30;;;1.07;;
16270;SDS011;8243;49.048;8.396;2023-05-10T13:29:33;1.10;;;0.70;;
16270;SDS011;8243;49.048;8.396;2023-05-10T13:31:59;1.90;;;0.90;;
16270;SDS011;8243;49.048;8.396;2023-05-10T13:34:25;2.07;;;0.83;;
16270;SDS011;8243;49.048;8.396;2023-05-10T13:36:51;0.70;;;0.70;;
16270;SDS011;8243;49.048;8.396;2023-05-10T13:39:17;2.80;;;0.80;;
16270;SDS011;8243;49.048;8.396;2023-05-10T13:41:43;1.20;;;0.70;;
16270;SDS011;8243;49.048;8.396;2023-05-10T13:44:09;0.73;;;0.73;;
16270;SDS011;8243;49.048;8.396;2023-05-10T13:46:37;2.27;;;0.83;;
16270;SDS011;8243;49.048;8.396;2023-05-10T13:49:03;1.10;;;0.87;;
16270;SDS011;8243;49.048;8.396;2023-05-10T13:51:29;1.87;;;0.60;;
16270;SDS011;8243;49.048;8.396;2023-05-10T13:53:56;2.27;;;1.10;;
16270;SDS011;8243;49.048;8.396;2023-05-10T13:56:22;1.00;;;0.90;;
16270;SDS011;8243;49.048;8.396;2023-05-10T13:58:48;0.93;;;0.70;;
16270;SDS011;8243;49.048;8.396;2023-05-10T14:01:14;1.90;;;0.90;;
16270;SDS011;8243;49.048;8.396;2023-05-10T14:03:41;3.30;;;0.70;;
16270;SDS011;8243;49.048;8.396;2023-05-10T14:06:06;1.40;;;0.80;;
16270;SDS011;8243;49.048;8.396;2023-05-10T14:08:33;0.67;;;0.63;;
16270;SDS011;8243;49.048;8.396;2023-05-10T14:10:59;0.87;;;0.60;;
16270;SDS011;8243;49.048;8.396;2023-05-10T14:13:25;1.30;;;1.20;;
16270;SDS011;8243;49.048;8.396;2023-05-10T14:15:50;1.70;;;0.70;;
16270;SDS011;8243;49.048;8.396;2023-05-10T14:18:17;1.03;;;0.80;;
16270;SDS011;8243;49.048;8.396;2023-05-10T14:20:43;0.60;;;0.60;;
16270;SDS011;8243;49.048;8.396;2023-05-10T14:23:08;1.43;;;0.60;;
16270;SDS011;8243;49.048;8.396;2023-05-10T14:25:34;1.70;;;0.73;;
16270;SDS011;8243;49.048;8.396;2023-05-10T14:28:00;1.27;;;0.80;;
16270;SDS011;8243;49.048;8.396;2023-05-10T14:30:25;1.60;;;0.90;;
16270;SDS011;8243;49.048;8.396;2023-05-10T14:32:51;3.23;;;0.80;;
16270;SDS011;8243;49.048;8.396;2023-05-10T14:35:18;1.53;;;0.70;;
16270;SDS011;8243;49.048;8.396;2023-05-10T14:37:44;2.30;;;0.87;;
16270;SDS011;8243;49.048;8.396;2023-05-10T14:40:10;1.47;;;0.97;;
16270;SDS011;8243;49.048;8.396;2023-05-10T14:42:37;2.00;;;0.80;;
16270;SDS011;8243;49.048;8.396;2023-05-10T14:45:03;1.30;;;0.80;;
16270;SDS011;8243;49.048;8.396;2023-05-10T14:47:30;1.10;;;0.80;;
16270;SDS011;8243;49.048;8.396;2023-05-10T14:49:55;3.63;;;0.77;;
16270;SDS011;8243;49.048;8.396;2023-05-10T14:52:21;0.70;;;0.70;;
16270;SDS011;8243;49.048;8.396;2023-05-10T14:54:46;0.80;;;0.80;;
16270;SDS011;8243;49.048;8.396;2023-05-10T14:57:12;1.73;;;1.03;;
16270;SDS011;8243;49.048;8.396;2023-05-10T14:59:38;1.97;;;0.97;;
16270;SDS011;8243;49.048;8.396;2023-05-10T15:02:03;1.17;;;0.70;;
16270;SDS011;8243;49.048;8.396;2023-05-10T15:04:29;2.97;;;0.77;;
16270;SDS011;8243;49.048;8.396;2023-05-10T15:06:55;1.33;;;1.20;;
16270;SDS011;8243;49.048;8.396;2023-05-10T15:09:24;3.20;;;1.70;;
16270;SDS011;8243;49.048;8.396;2023-05-10T15:11:52;1.57;;;0.83;;
16270;SDS011;8243;49.048;8.396;2023-05-10T15:14:18;0.77;;;0.70;;
16270;SDS011;8243;49.048;8.396;2023-05-10T15:16:44;2.00;;;1.00;;
16270;SDS011;8243;49.048;8.396;2023-05-10T15:19:09;1.10;;;1.10;;
16270;SDS011;8243;49.048;8.396;2023-05-10T15:21:35;1.53;;;0.80;;
16270;SDS011;8243;49.048;8.396;2023-05-10T15:24:04;2.20;;;0.80;;
16270;SDS011;8243;49.048;8.396;2023-05-10T15:26:33;3.43;;;0.93;;
16270;SDS011;8243;49.048;8.396;2023-05-10T15:28:58;3.40;;;1.10;;
16270;SDS011;8243;49.048;8.396;2023-05-10T15:31:25;0.97;;;0.90;;
16270;SDS011;8243;49.048;8.396;2023-05-10T15:33:51;1.87;;;0.80;;
16270;SDS011;8243;49.048;8.396;2023-05-10T15:36:21;3.07;;;1.10;;
16270;SDS011;8243;49.048;8.396;2023-05-10T15:38:47;1.93;;;1.00;;
16270;SDS011;8243;49.048;8.396;2023-05-10T15:41:13;0.80;;;0.80;;
16270;SDS011;8243;49.048;8.396;2023-05-10T15:43:38;1.33;;;0.83;;